sensor_id;sensor_type;location;lat;lon;timestamp;pressure;altitude;pressure_sealevel;temperature;humidity
59787;BME280;45672;51.612;5.536;2023-04-24T00:01:12;99786.19;;;9.44;100.00
59787;BME280;45672;51.612;5.536;2023-04-24T00:03:38;99784.53;;;9.43;100.00
59787;BME280;45672;51.612;5.536;2023-04-24T00:06:04;99778.53;;;9.41;100.00
59787;BME280;45672;51.612;5.536;2023-04-24T00:08:32;99778.41;;;9.42;100.00
59787;BME280;45672;51.612;5.536;2023-04-24T00:10:58;99775.06;;;9.40;100.00
59787;BME280;45672;51.612;5.536;2023-04-24T00:13:23;99782.69;;;9.43;100.00
59787;BME280;45672;51.612;5.536;2023-04-24T00:15:49;99778.22;;;9.44;100.00
59787;BME280;45672;51.612;5.536;2023-04-24T00:18:14;99784.53;;;9.43;100.00
59787;BME280;45672;51.612;5.536;2023-04-24T00:20:40;99781.34;;;9.47;100.00
59787;BME280;45672;51.612;5.536;2023-04-24T00:23:05;99788.50;;;9.47;100.00
59787;BME280;45672;51.612;5.536;2023-04-24T00:25:31;99792.94;;;9.46;100.00
59787;BME280;45672;51.612;5.536;2023-04-24T00:27:56;99798.63;;;9.43;100.00
59787;BME280;45672;51.612;5.536;2023-04-24T00:30:21;99787.03;;;9.36;100.00
59787;BME280;45672;51.612;5.536;2023-04-24T00:32:47;99806.13;;;9.40;100.00
59787;BME280;45672;51.612;5.536;2023-04-24T00:35:12;99807.63;;;9.34;100.00
59787;BME280;45672;51.612;5.536;2023-04-24T00:37:38;99803.31;;;9.33;100.00
59787;BME280;45672;51.612;5.536;2023-04-24T00:40:03;99800.03;;;9.31;100.00
59787;BME280;45672;51.612;5.536;2023-04-24T00:42:29;99800.03;;;9.31;100.00
59787;BME280;45672;51.612;5.536;2023-04-24T00:44:56;99797.19;;;9.32;100.00
59787;BME280;45672;51.612;5.536;2023-04-24T00:47:21;99807.50;;;9.27;100.00
59787;BME280;45672;51.612;5.536;2023-04-24T00:49:47;99802.38;;;9.18;100.00
59787;BME280;45672;51.612;5.536;2023-04-24T00:52:12;99798.44;;;9.05;100.00
59787;BME280;45672;51.612;5.536;2023-04-24T00:54:43;99809.75;;;8.99;100.00
59787;BME280;45672;51.612;5.536;2023-04-24T00:57:09;99811.25;;;8.93;100.00
59787;BME280;45672;51.612;5.536;2023-04-24T00:59:34;99808.25;;;8.88;100.00
59787;BME280;45672;51.612;5.536;2023-04-24T01:02:00;99801.50;;;8.86;100.00
59787;BME280;45672;51.612;5.536;2023-04-24T01:04:26;99808.78;;;8.84;100.00
59787;BME280;45672;51.612;5.536;2023-04-24T01:06:52;99807.28;;;8.81;100.00
59787;BME280;45672;51.612;5.536;2023-04-24T01:09:18;99789.06;;;8.78;100.00
59787;BME280;45672;51.612;5.536;2023-04-24T01:11:44;99804.81;;;8.79;100.00
59787;BME280;45672;51.612;5.536;2023-04-24T01:14:09;99807.47;;;8.79;100.00
59787;BME280;45672;51.612;5.536;2023-04-24T01:16:35;99804.81;;;8.79;100.00
59787;BME280;45672;51.612;5.536;2023-04-24T01:19:01;99805.81;;;8.78;100.00
59787;BME280;45672;51.612;5.536;2023-04-24T01:21:27;99796.84;;;8.79;100.00
59787;BME280;45672;51.612;5.536;2023-04-24T01:23:54;99796.84;;;8.79;100.00
59787;BME280;45672;51.612;5.536;2023-04-24T01:26:20;99797.69;;;8.80;100.00
59787;BME280;45672;51.612;5.536;2023-04-24T01:28:47;99794.38;;;8.78;100.00
59787;BME280;45672;51.612;5.536;2023-04-24T01:31:14;99791.25;;;8.74;100.00
59787;BME280;45672;51.612;5.536;2023-04-24T01:33:41;99802.84;;;8.73;100.00
59787;BME280;45672;51.612;5.536;2023-04-24T01:36:07;99802.84;;;8.73;100.00
59787;BME280;45672;51.612;5.536;2023-04-24T01:38:33;99799.03;;;8.68;100.00
59787;BME280;45672;51.612;5.536;2023-04-24T01:40:59;99805.84;;;8.62;100.00
59787;BME280;45672;51.612;5.536;2023-04-24T01:43:24;99799.56;;;8.63;100.00
59787;BME280;45672;51.612;5.536;2023-04-24T01:45:50;99800.38;;;8.63;100.00
59787;BME280;45672;51.612;5.536;2023-04-24T01:48:15;99791.75;;;8.61;100.00
59787;BME280;45672;51.612;5.536;2023-04-24T01:50:40;99792.75;;;8.60;100.00
59787;BME280;45672;51.612;5.536;2023-04-24T01:53:06;99792.06;;;8.58;100.00
59787;BME280;45672;51.612;5.536;2023-04-24T01:55:31;99788.94;;;8.55;100.00
59787;BME280;45672;51.612;5.536;2023-04-24T01:57:57;99794.25;;;8.55;100.00
59787;BME280;45672;51.612;5.536;2023-04-24T02:00:24;99795.25;;;8.54;100.00
59787;BME280;45672;51.612;5.536;2023-04-24T02:02:50;99798.75;;;8.54;100.00
59787;BME280;45672;51.612;5.536;2023-04-24T02:05:15;99797.25;;;8.52;100.00
59787;BME280;45672;51.612;5.536;2023-04-24T02:07:40;99799.03;;;8.51;100.00
59787;BME280;45672;51.612;5.536;2023-04-24T02:10:06;99793.28;;;8.48;100.00
59787;BME280;45672;51.612;5.536;2023-04-24T02:12:32;99804.69;;;8.48;100.00
59787;BME280;45672;51.612;5.536;2023-04-24T02:14:57;99798.75;;;8.46;100.00
59787;BME280;45672;51.612;5.536;2023-04-24T02:17:22;99800.53;;;8.45;100.00
59787;BME280;45672;51.612;5.536;2023-04-24T02:19:48;99809.50;;;8.44;100.00
59787;BME280;45672;51.612;5.536;2023-04-24T02:22:13;99807.81;;;8.43;100.00
59787;BME280;45672;51.612;5.536;2023-04-24T02:24:39;99809.97;;;8.40;100.00
59787;BME280;45672;51.612;5.536;2023-04-24T02:27:04;99808.97;;;8.41;100.00
59787;BME280;45672;51.612;5.536;2023-04-24T02:29:30;99803.84;;;8.39;100.00
59787;BME280;45672;51.612;5.536;2023-04-24T02:31:56;99804.81;;;8.38;100.00
59787;BME280;45672;51.612;5.536;2023-04-24T02:34:21;99814.78;;;8.36;100.00
59787;BME280;45672;51.612;5.536;2023-04-24T02:36:48;99802.69;;;8.34;100.00
59787;BME280;45672;51.612;5.536;2023-04-24T02:39:14;99808.16;;;8.32;100.00
59787;BME280;45672;51.612;5.536;2023-04-24T02:41:41;99798.88;;;8.28;100.00
59787;BME280;45672;51.612;5.536;2023-04-24T02:44:07;99802.69;;;8.34;100.00
59787;BME280;45672;51.612;5.536;2023-04-24T02:46:32;99804.69;;;8.32;100.00
59787;BME280;45672;51.612;5.536;2023-04-24T02:48:57;99801.34;;;8.29;100.00
59787;BME280;45672;51.612;5.536;2023-04-24T02:51:22;99795.88;;;8.23;100.00
59787;BME280;45672;51.612;5.536;2023-04-24T02:53:48;99792.25;;;8.24;100.00
59787;BME280;45672;51.612;5.536;2023-04-24T02:56:13;99794.25;;;8.22;100.00
59787;BME280;45672;51.612;5.536;2023-04-24T02:58:39;99793.41;;;8.21;100.00
59787;BME280;45672;51.612;5.536;2023-04-24T03:01:04;99798.88;;;8.20;100.00
59787;BME280;45672;51.612;5.536;2023-04-24T03:03:30;99793.25;;;8.15;100.00
59787;BME280;45672;51.612;5.536;2023-04-24T03:05:55;99794.72;;;8.17;100.00
59787;BME280;45672;51.612;5.536;2023-04-24T03:08:22;99796.72;;;8.15;100.00
59787;BME280;45672;51.612;5.536;2023-04-24T03:10:47;99801.84;;;8.17;100.00
59787;BME280;45672;51.612;5.536;2023-04-24T03:13:12;99799.88;;;8.19;100.00
59787;BME280;45672;51.612;5.536;2023-04-24T03:15:38;99791.94;;;8.19;100.00
59787;BME280;45672;51.612;5.536;2023-04-24T03:18:03;99802.19;;;8.22;100.00
59787;BME280;45672;51.612;5.536;2023-04-24T03:20:29;99801.19;;;8.23;100.00
59787;BME280;45672;51.612;5.536;2023-04-24T03:22:54;99794.25;;;8.22;100.00
59787;BME280;45672;51.612;5.536;2023-04-24T03:25:19;99801.19;;;8.23;100.00
59787;BME280;45672;51.612;5.536;2023-04-24T03:27:45;99802.03;;;8.23;100.00
59787;BME280;45672;51.612;5.536;2023-04-24T03:30:11;99788.94;;;8.22;100.00
59787;BME280;45672;51.612;5.536;2023-04-24T03:32:36;99798.88;;;8.20;100.00
59787;BME280;45672;51.612;5.536;2023-04-24T03:35:01;99797.22;;;8.19;100.00
59787;BME280;45672;51.612;5.536;2023-04-24T03:37:27;99797.06;;;8.20;100.00
59787;BME280;45672;51.612;5.536;2023-04-24T03:39:52;99798.88;;;8.20;100.00
59787;BME280;45672;51.612;5.536;2023-04-24T03:42:18;99792.06;;;8.17;100.00
59787;BME280;45672;51.612;5.536;2023-04-24T03:44:43;99791.25;;;8.17;100.00
59787;BME280;45672;51.612;5.536;2023-04-24T03:47:08;99790.59;;;8.15;100.00
59787;BME280;45672;51.612;5.536;2023-04-24T03:49:34;99794.25;;;8.14;100.00
59787;BME280;45672;51.612;5.536;2023-04-24T03:51:59;99789.91;;;8.13;100.00
59787;BME280;45672;51.612;5.536;2023-04-24T03:54:24;99777.34;;;8.06;100.00
59787;BME280;45672;51.612;5.536;2023-04-24T03:56:50;99790.09;;;8.11;100.00
59787;BME280;45672;51.612;5.536;2023-04-24T03:59:15;99789.59;;;8.07;100.00
59787;BME280;45672;51.612;5.536;2023-04-24T04:01:40;99790.25;;;8.09;100.00
59787;BME280;45672;51.612;5.536;2023-04-24T04:04:06;99790.25;;;8.09;100.00
59787;BME280;45672;51.612;5.536;2023-04-24T04:06:32;99780.00;;;8.06;100.00
59787;BME280;45672;51.612;5.536;2023-04-24T04:08:58;99788.13;;;8.05;100.00
59787;BME280;45672;51.612;5.536;2023-04-24T04:11:24;99786.97;;;8.07;100.00
59787;BME280;45672;51.612;5.536;2023-04-24T04:13:50;99777.69;;;8.03;100.00
59787;BME280;45672;51.612;5.536;2023-04-24T04:16:15;99792.44;;;8.06;100.00
59787;BME280;45672;51.612;5.536;2023-04-24T04:18:42;99790.75;;;8.05;100.00
59787;BME280;45672;51.612;5.536;2023-04-24T04:21:07;99798.03;;;8.03;100.00
59787;BME280;45672;51.612;5.536;2023-04-24T04:23:33;99796.22;;;8.03;100.00
59787;BME280;45672;51.612;5.536;2023-04-24T04:25:58;99782.31;;;8.01;100.00
59787;BME280;45672;51.612;5.536;2023-04-24T04:28:24;99789.25;;;8.02;100.00
59787;BME280;45672;51.612;5.536;2023-04-24T04:30:49;99796.56;;;8.00;100.00
59787;BME280;45672;51.612;5.536;2023-04-24T04:33:19;99785.97;;;8.00;100.00
59787;BME280;45672;51.612;5.536;2023-04-24T04:35:44;99793.75;;;8.02;100.00
59787;BME280;45672;51.612;5.536;2023-04-24T04:38:10;99795.72;;;8.00;100.00
59787;BME280;45672;51.612;5.536;2023-04-24T04:40:36;99788.59;;;7.92;100.00
59787;BME280;45672;51.612;5.536;2023-04-24T04:43:01;99800.81;;;7.93;100.00
59787;BME280;45672;51.612;5.536;2023-04-24T04:45:27;99804.50;;;7.92;100.00
59787;BME280;45672;51.612;5.536;2023-04-24T04:47:53;99805.31;;;7.92;100.00
59787;BME280;45672;51.612;5.536;2023-04-24T04:50:20;99803.34;;;7.94;100.00
59787;BME280;45672;51.612;5.536;2023-04-24T04:52:45;99800.34;;;7.89;100.00
59787;BME280;45672;51.612;5.536;2023-04-24T04:55:11;99806.13;;;7.93;100.00
59787;BME280;45672;51.612;5.536;2023-04-24T04:57:38;99799.19;;;7.92;100.00
59787;BME280;45672;51.612;5.536;2023-04-24T05:00:04;99808.78;;;7.93;100.00
59787;BME280;45672;51.612;5.536;2023-04-24T05:02:30;99815.91;;;7.92;100.00
59787;BME280;45672;51.612;5.536;2023-04-24T05:04:55;99815.09;;;7.92;100.00
59787;BME280;45672;51.612;5.536;2023-04-24T05:07:21;99806.97;;;7.93;100.00
59787;BME280;45672;51.612;5.536;2023-04-24T05:09:47;99818.72;;;7.91;100.00
59787;BME280;45672;51.612;5.536;2023-04-24T05:12:12;99814.91;;;7.85;100.00
59787;BME280;45672;51.612;5.536;2023-04-24T05:14:37;99822.34;;;7.90;100.00
59787;BME280;45672;51.612;5.536;2023-04-24T05:17:02;99824.53;;;7.94;100.00
59787;BME280;45672;51.612;5.536;2023-04-24T05:19:28;99828.34;;;8.00;100.00
59787;BME280;45672;51.612;5.536;2023-04-24T05:21:53;99823.88;;;8.01;100.00
59787;BME280;45672;51.612;5.536;2023-04-24T05:24:18;99829.97;;;8.01;100.00
59787;BME280;45672;51.612;5.536;2023-04-24T05:26:44;99840.56;;;8.01;100.00
59787;BME280;45672;51.612;5.536;2023-04-24T05:29:09;99839.94;;;7.99;100.00
59787;BME280;45672;51.612;5.536;2023-04-24T05:31:34;99838.09;;;8.00;100.00
59787;BME280;45672;51.612;5.536;2023-04-24T05:33:59;99838.94;;;8.00;100.00
59787;BME280;45672;51.612;5.536;2023-04-24T05:36:25;99835.97;;;8.03;100.00
59787;BME280;45672;51.612;5.536;2023-04-24T05:38:52;99844.56;;;8.05;100.00
59787;BME280;45672;51.612;5.536;2023-04-24T05:41:17;99838.09;;;8.00;100.00
59787;BME280;45672;51.612;5.536;2023-04-24T05:43:42;99844.38;;;7.99;100.00
59787;BME280;45672;51.612;5.536;2023-04-24T05:46:08;99849.03;;;7.97;100.00
59787;BME280;45672;51.612;5.536;2023-04-24T05:48:33;99845.72;;;7.94;100.00
59787;BME280;45672;51.612;5.536;2023-04-24T05:50:58;99842.22;;;7.94;100.00
59787;BME280;45672;51.612;5.536;2023-04-24T05:53:24;99859.97;;;8.02;100.00
59787;BME280;45672;51.612;5.536;2023-04-24T05:55:49;99872.22;;;8.11;100.00
59787;BME280;45672;51.612;5.536;2023-04-24T05:58:14;99879.84;;;8.14;100.00
59787;BME280;45672;51.612;5.536;2023-04-24T06:00:40;99881.84;;;8.12;100.00
59787;BME280;45672;51.612;5.536;2023-04-24T06:03:07;99884.97;;;8.16;100.00
59787;BME280;45672;51.612;5.536;2023-04-24T06:05:33;99894.56;;;8.08;100.00
59787;BME280;45672;51.612;5.536;2023-04-24T06:07:58;99896.91;;;8.03;100.00
59787;BME280;45672;51.612;5.536;2023-04-24T06:10:23;99906.47;;;8.04;100.00
59787;BME280;45672;51.612;5.536;2023-04-24T06:12:49;99899.53;;;8.03;100.00
59787;BME280;45672;51.612;5.536;2023-04-24T06:15:14;99900.34;;;8.04;100.00
59787;BME280;45672;51.612;5.536;2023-04-24T06:17:40;99911.47;;;8.07;100.00
59787;BME280;45672;51.612;5.536;2023-04-24T06:20:06;99916.63;;;8.09;100.00
59787;BME280;45672;51.612;5.536;2023-04-24T06:22:33;99914.91;;;8.00;100.00
59787;BME280;45672;51.612;5.536;2023-04-24T06:24:59;99925.31;;;7.93;100.00
59787;BME280;45672;51.612;5.536;2023-04-24T06:27:24;99928.28;;;7.90;100.00
59787;BME280;45672;51.612;5.536;2023-04-24T06:29:50;99932.66;;;7.99;100.00
59787;BME280;45672;51.612;5.536;2023-04-24T06:32:19;99935.13;;;8.01;100.00
59787;BME280;45672;51.612;5.536;2023-04-24T06:34:45;99942.72;;;7.96;100.00
59787;BME280;45672;51.612;5.536;2023-04-24T06:37:10;99950.63;;;7.87;100.00
59787;BME280;45672;51.612;5.536;2023-04-24T06:39:35;99958.25;;;7.82;100.00
59787;BME280;45672;51.612;5.536;2023-04-24T06:42:01;99963.72;;;7.89;100.00
59787;BME280;45672;51.612;5.536;2023-04-24T06:44:26;99968.06;;;7.98;100.00
59787;BME280;45672;51.612;5.536;2023-04-24T06:46:51;99976.00;;;7.98;100.00
59787;BME280;45672;51.612;5.536;2023-04-24T06:49:17;99980.31;;;7.99;100.00
59787;BME280;45672;51.612;5.536;2023-04-24T06:51:42;99968.25;;;8.05;100.00
59787;BME280;45672;51.612;5.536;2023-04-24T06:54:07;99984.47;;;8.02;100.00
59787;BME280;45672;51.612;5.536;2023-04-24T06:56:33;99984.94;;;7.97;100.00
59787;BME280;45672;51.612;5.536;2023-04-24T06:58:59;99986.28;;;8.01;100.00
59787;BME280;45672;51.612;5.536;2023-04-24T07:01:24;99987.28;;;8.00;100.00
59787;BME280;45672;51.612;5.536;2023-04-24T07:03:50;99997.03;;;8.00;100.00
59787;BME280;45672;51.612;5.536;2023-04-24T07:06:15;100012.31;;;8.06;100.00
59787;BME280;45672;51.612;5.536;2023-04-24T07:08:41;100017.47;;;8.16;100.00
59787;BME280;45672;51.612;5.536;2023-04-24T07:11:07;100010.19;;;8.18;100.00
59787;BME280;45672;51.612;5.536;2023-04-24T07:13:33;100017.66;;;8.22;100.00
59787;BME280;45672;51.612;5.536;2023-04-24T07:16:00;100047.13;;;8.19;100.00
59787;BME280;45672;51.612;5.536;2023-04-24T07:18:25;100044.97;;;8.15;100.00
59787;BME280;45672;51.612;5.536;2023-04-24T07:20:51;100067.19;;;8.22;100.00
59787;BME280;45672;51.612;5.536;2023-04-24T07:23:17;100069.31;;;8.18;100.00
59787;BME280;45672;51.612;5.536;2023-04-24T07:25:43;100073.09;;;8.16;100.00
59787;BME280;45672;51.612;5.536;2023-04-24T07:28:08;100096.47;;;8.12;100.00
59787;BME280;45672;51.612;5.536;2023-04-24T07:30:33;100089.81;;;8.08;100.00
59787;BME280;45672;51.612;5.536;2023-04-24T07:32:59;100110.19;;;8.07;100.00
59787;BME280;45672;51.612;5.536;2023-04-24T07:35:25;100112.78;;;7.99;100.00
59787;BME280;45672;51.612;5.536;2023-04-24T07:37:53;100119.06;;;7.98;100.00
59787;BME280;45672;51.612;5.536;2023-04-24T07:40:19;100140.41;;;7.97;100.00
59787;BME280;45672;51.612;5.536;2023-04-24T07:42:44;100134.44;;;7.94;100.00
59787;BME280;45672;51.612;5.536;2023-04-24T07:45:10;100134.94;;;7.98;100.00
59787;BME280;45672;51.612;5.536;2023-04-24T07:47:36;100144.41;;;8.01;100.00
59787;BME280;45672;51.612;5.536;2023-04-24T07:50:02;100160.47;;;7.99;100.00
59787;BME280;45672;51.612;5.536;2023-04-24T07:52:28;100165.59;;;8.01;100.00
59787;BME280;45672;51.612;5.536;2023-04-24T07:54:54;100168.09;;;8.02;100.00
59787;BME280;45672;51.612;5.536;2023-04-24T07:57:24;100175.72;;;8.05;100.00
59787;BME280;45672;51.612;5.536;2023-04-24T07:59:49;100181.03;;;8.05;100.00
59787;BME280;45672;51.612;5.536;2023-04-24T08:02:14;100198.59;;;8.06;100.00
59787;BME280;45672;51.612;5.536;2023-04-24T08:04:40;100200.25;;;8.07;100.00
59787;BME280;45672;51.612;5.536;2023-04-24T08:07:05;100205.25;;;8.10;100.00
59787;BME280;45672;51.612;5.536;2023-04-24T08:09:31;100212.88;;;8.14;100.00
59787;BME280;45672;51.612;5.536;2023-04-24T08:11:56;100207.59;;;8.14;100.00
59787;BME280;45672;51.612;5.536;2023-04-24T08:14:21;100220.53;;;8.17;100.00
59787;BME280;45672;51.612;5.536;2023-04-24T08:16:47;100215.91;;;8.19;100.00
59787;BME280;45672;51.612;5.536;2023-04-24T08:19:12;100226.88;;;8.24;100.00
59787;BME280;45672;51.612;5.536;2023-04-24T08:21:37;100231.19;;;8.25;100.00
59787;BME280;45672;51.612;5.536;2023-04-24T08:24:03;100245.09;;;8.27;100.00
59787;BME280;45672;51.612;5.536;2023-04-24T08:26:32;100248.59;;;8.27;100.00
59787;BME280;45672;51.612;5.536;2023-04-24T08:28:57;100256.63;;;8.36;100.00
59787;BME280;45672;51.612;5.536;2023-04-24T08:31:22;100262.34;;;8.31;100.00
59787;BME280;45672;51.612;5.536;2023-04-24T08:33:50;100278.41;;;8.29;100.00
59787;BME280;45672;51.612;5.536;2023-04-24T08:36:15;100280.56;;;8.26;100.00
59787;BME280;45672;51.612;5.536;2023-04-24T08:38:41;100287.72;;;8.34;100.00
59787;BME280;45672;51.612;5.536;2023-04-24T08:41:07;100292.53;;;8.30;100.00
59787;BME280;45672;51.612;5.536;2023-04-24T08:43:33;100303.47;;;8.35;100.00
59787;BME280;45672;51.612;5.536;2023-04-24T08:45:58;100288.56;;;8.34;100.00
59787;BME280;45672;51.612;5.536;2023-04-24T08:48:25;100313.25;;;8.35;100.00
59787;BME280;45672;51.612;5.536;2023-04-24T08:50:50;100305.47;;;8.33;100.00
59787;BME280;45672;51.612;5.536;2023-04-24T08:53:16;100316.25;;;8.40;100.00
59787;BME280;45672;51.612;5.536;2023-04-24T08:55:43;100328.22;;;8.44;100.00
59787;BME280;45672;51.612;5.536;2023-04-24T08:58:11;100320.28;;;8.44;100.00
59787;BME280;45672;51.612;5.536;2023-04-24T09:00:38;100319.63;;;8.42;100.00
59787;BME280;45672;51.612;5.536;2023-04-24T09:03:05;100326.59;;;8.43;100.00
59787;BME280;45672;51.612;5.536;2023-04-24T09:05:31;100336.28;;;8.52;100.00
59787;BME280;45672;51.612;5.536;2023-04-24T09:07:57;100333.47;;;8.54;100.00
59787;BME280;45672;51.612;5.536;2023-04-24T09:10:25;100340.69;;;8.61;100.00
59787;BME280;45672;51.612;5.536;2023-04-24T09:12:51;100352.41;;;8.59;100.00
59787;BME280;45672;51.612;5.536;2023-04-24T09:15:18;100352.03;;;8.54;100.00
59787;BME280;45672;51.612;5.536;2023-04-24T09:17:44;100355.31;;;8.48;100.00
59787;BME280;45672;51.612;5.536;2023-04-24T09:20:10;100354.63;;;8.45;100.00
59787;BME280;45672;51.612;5.536;2023-04-24T09:22:36;100347.72;;;8.53;100.00
59787;BME280;45672;51.612;5.536;2023-04-24T09:25:06;100354.41;;;8.83;100.00
59787;BME280;45672;51.612;5.536;2023-04-24T09:27:33;100356.97;;;8.93;100.00
59787;BME280;45672;51.612;5.536;2023-04-24T09:29:59;100360.66;;;9.00;100.00
59787;BME280;45672;51.612;5.536;2023-04-24T09:32:26;100372.00;;;9.10;100.00
59787;BME280;45672;51.612;5.536;2023-04-24T09:37:39;100394.41;;;9.51;100.00
59787;BME280;45672;51.612;5.536;2023-04-24T09:40:11;100392.84;;;10.33;100.00
59787;BME280;45672;51.612;5.536;2023-04-24T09:42:37;100401.19;;;10.96;100.00
59787;BME280;45672;51.612;5.536;2023-04-24T09:45:03;100417.31;;;10.86;100.00
59787;BME280;45672;51.612;5.536;2023-04-24T09:47:36;100413.97;;;10.51;100.00
59787;BME280;45672;51.612;5.536;2023-04-24T09:50:08;100425.22;;;10.29;100.00
59787;BME280;45672;51.612;5.536;2023-04-24T09:52:34;100421.19;;;10.00;100.00
59787;BME280;45672;51.612;5.536;2023-04-24T09:55:00;100436.34;;;9.73;100.00
59787;BME280;45672;51.612;5.536;2023-04-24T09:57:25;100426.28;;;9.51;100.00
59787;BME280;45672;51.612;5.536;2023-04-24T09:59:53;100442.66;;;9.38;100.00
59787;BME280;45672;51.612;5.536;2023-04-24T10:02:19;100447.72;;;9.23;100.00
59787;BME280;45672;51.612;5.536;2023-04-24T10:04:56;100438.72;;;9.16;100.00
59787;BME280;45672;51.612;5.536;2023-04-24T10:07:26;100450.47;;;9.13;100.00
59787;BME280;45672;51.612;5.536;2023-04-24T10:09:51;100455.56;;;9.06;100.00
59787;BME280;45672;51.612;5.536;2023-04-24T10:12:17;100462.53;;;9.07;100.00
59787;BME280;45672;51.612;5.536;2023-04-24T10:14:44;100461.59;;;9.17;100.00
59787;BME280;45672;51.612;5.536;2023-04-24T10:17:10;100462.69;;;9.32;100.00
59787;BME280;45672;51.612;5.536;2023-04-24T10:19:37;100456.69;;;9.48;100.00
59787;BME280;45672;51.612;5.536;2023-04-24T10:22:03;100457.28;;;9.68;100.00
59787;BME280;45672;51.612;5.536;2023-04-24T10:24:29;100461.22;;;9.98;100.00
59787;BME280;45672;51.612;5.536;2023-04-24T10:26:55;100467.41;;;10.15;100.00
59787;BME280;45672;51.612;5.536;2023-04-24T10:29:21;100473.16;;;10.37;100.00
59787;BME280;45672;51.612;5.536;2023-04-24T10:31:47;100474.47;;;10.41;100.00
59787;BME280;45672;51.612;5.536;2023-04-24T10:34:14;100481.81;;;10.39;100.00
59787;BME280;45672;51.612;5.536;2023-04-24T10:36:43;100472.22;;;10.20;96.66
59787;BME280;45672;51.612;5.536;2023-04-24T10:39:12;100481.06;;;10.21;100.00
59787;BME280;45672;51.612;5.536;2023-04-24T10:41:40;100498.34;;;10.16;100.00
59787;BME280;45672;51.612;5.536;2023-04-24T10:44:06;100493.47;;;10.12;99.17
59787;BME280;45672;51.612;5.536;2023-04-24T10:46:32;100492.78;;;10.01;98.23
59787;BME280;45672;51.612;5.536;2023-04-24T10:48:57;100504.38;;;9.92;99.46
59787;BME280;45672;51.612;5.536;2023-04-24T10:51:24;100509.16;;;9.89;100.00
59787;BME280;45672;51.612;5.536;2023-04-24T10:53:50;100522.88;;;10.02;100.00
59787;BME280;45672;51.612;5.536;2023-04-24T10:56:16;100519.31;;;10.28;100.00
59787;BME280;45672;51.612;5.536;2023-04-24T10:58:43;100516.25;;;10.57;97.99
59787;BME280;45672;51.612;5.536;2023-04-24T11:01:30;100522.28;;;10.84;96.99
59787;BME280;45672;51.612;5.536;2023-04-24T11:03:58;100521.44;;;10.75;92.21
59787;BME280;45672;51.612;5.536;2023-04-24T11:06:35;100526.88;;;10.57;93.60
59787;BME280;45672;51.612;5.536;2023-04-24T11:09:06;100528.84;;;10.47;93.91
59787;BME280;45672;51.612;5.536;2023-04-24T11:11:34;100528.69;;;10.48;95.81
59787;BME280;45672;51.612;5.536;2023-04-24T11:16:46;100544.66;;;10.48;96.85
59787;BME280;45672;51.612;5.536;2023-04-24T11:21:48;100533.38;;;10.63;95.75
59787;BME280;45672;51.612;5.536;2023-04-24T11:24:30;100542.06;;;10.73;94.25
59787;BME280;45672;51.612;5.536;2023-04-24T11:27:12;100543.75;;;10.99;92.17
59787;BME280;45672;51.612;5.536;2023-04-24T11:29:46;100551.41;;;11.27;89.34
59787;BME280;45672;51.612;5.536;2023-04-24T11:32:26;100558.41;;;11.44;87.28
59787;BME280;45672;51.612;5.536;2023-04-24T11:34:57;100557.41;;;11.53;85.69
59787;BME280;45672;51.612;5.536;2023-04-24T11:37:26;100568.69;;;11.64;83.79
59787;BME280;45672;51.612;5.536;2023-04-24T11:39:57;100564.75;;;11.51;82.61
59787;BME280;45672;51.612;5.536;2023-04-24T11:42:23;100568.88;;;11.21;81.88
59787;BME280;45672;51.612;5.536;2023-04-24T11:44:51;100573.03;;;11.07;82.81
59787;BME280;45672;51.612;5.536;2023-04-24T11:47:16;100566.38;;;10.86;82.20
59787;BME280;45672;51.612;5.536;2023-04-24T11:49:42;100586.47;;;10.81;85.26
59787;BME280;45672;51.612;5.536;2023-04-24T11:52:07;100574.53;;;10.85;87.27
59787;BME280;45672;51.612;5.536;2023-04-24T11:54:32;100592.63;;;10.81;85.04
59787;BME280;45672;51.612;5.536;2023-04-24T11:56:58;100587.81;;;10.85;86.76
59787;BME280;45672;51.612;5.536;2023-04-24T11:59:23;100599.78;;;10.81;86.09
59787;BME280;45672;51.612;5.536;2023-04-24T12:01:49;100599.94;;;10.71;84.78
59787;BME280;45672;51.612;5.536;2023-04-24T12:04:16;100608.56;;;10.65;87.92
59787;BME280;45672;51.612;5.536;2023-04-24T12:07:04;100606.59;;;10.75;91.36
59787;BME280;45672;51.612;5.536;2023-04-24T12:09:56;100607.59;;;10.82;90.73
59787;BME280;45672;51.612;5.536;2023-04-24T12:12:27;100598.97;;;10.80;89.23
59787;BME280;45672;51.612;5.536;2023-04-24T12:14:55;100610.97;;;11.01;91.02
59787;BME280;45672;51.612;5.536;2023-04-24T12:17:29;100600.03;;;11.20;87.22
59787;BME280;45672;51.612;5.536;2023-04-24T12:20:03;100605.69;;;11.34;85.33
59787;BME280;45672;51.612;5.536;2023-04-24T12:22:49;100601.53;;;11.48;88.94
59787;BME280;45672;51.612;5.536;2023-04-24T12:25:16;100605.88;;;11.49;86.65
59787;BME280;45672;51.612;5.536;2023-04-24T12:27:43;100609.34;;;11.49;85.21
59787;BME280;45672;51.612;5.536;2023-04-24T12:30:14;100608.19;;;11.52;85.66
59787;BME280;45672;51.612;5.536;2023-04-24T12:32:45;100614.84;;;11.48;83.90
59787;BME280;45672;51.612;5.536;2023-04-24T12:35:11;100621.31;;;11.37;81.20
59787;BME280;45672;51.612;5.536;2023-04-24T12:37:36;100612.84;;;11.25;81.88
59787;BME280;45672;51.612;5.536;2023-04-24T12:40:11;100613.31;;;11.12;84.08
59787;BME280;45672;51.612;5.536;2023-04-24T12:45:13;100632.63;;;11.06;87.03
59787;BME280;45672;51.612;5.536;2023-04-24T12:47:39;100632.47;;;11.16;87.00
59787;BME280;45672;51.612;5.536;2023-04-24T12:50:15;100635.63;;;11.19;86.48
59787;BME280;45672;51.612;5.536;2023-04-24T12:52:41;100635.63;;;11.11;85.21
59787;BME280;45672;51.612;5.536;2023-04-24T12:55:07;100629.44;;;11.02;86.52
59787;BME280;45672;51.612;5.536;2023-04-24T12:57:33;100658.69;;;10.94;89.44
59787;BME280;45672;51.612;5.536;2023-04-24T13:00:00;100656.34;;;10.83;92.93
59787;BME280;45672;51.612;5.536;2023-04-24T13:02:28;100674.28;;;10.73;94.43